Carmel Valley, California
Current Conditions -  °F | °C
As of 10:54 AM on Friday 31 Oct 2014 (Local Time) from KMRY Reporting Station
Broken Clouds Broken Clouds  
Wind Chill: 66°   Ceiling: 10000
Heat Index: 66°   Visibility: 10mi
Dew Point: 56°   Wind: 3mph
Humidity: 70%   Direction: 360°N
Pressure: 29.88"   Gusts: NA
Location:  36.48°N, 121.73°W
Report Text: KMRY 311754Z 36003KT 10SM BKN100 19/13 A2988 RMK AO2 RAB05E19 SLP129 P0000 60000 T01890133 10194 20133 58006
Loading
Personal Weather Stations






























Interactive Weather Map
Tropical Storm Tracking
New forecast layout! Learn more

10-Day Weather Forecast

Advertisements
Track Severe Weather on mobile